Time;durP1;ratioP1;P1;durP2;ratioP2;P2;SDS_P1;SDS_P2;PMS_P1;PMS_P2;Temp;Humidity;BMP_temperature;BMP_pressure;BME280_temperature;BME280_humidity;BME280_pressure;Samples;Min_cycle;Max_cycle;Signal;HPM_P1;HPM_P2
2022/10/07 00:01:07;;;;;;;1.58;0.70;;;13.40;99.90;;;;;;5075034;28;21839;-83
2022/10/07 00:03:33;;;;;;;1.88;0.50;;;13.90;99.90;;;;;;5075654;28;20499;-83
2022/10/07 00:06:03;;;;;;;2.28;0.55;;;13.50;99.90;;;;;;5093714;28;20608;-83
2022/10/07 00:08:30;;;;;;;4.38;0.70;;;13.50;99.90;;;;;;5074644;28;20781;-84
2022/10/07 00:10:55;;;;;;;1.77;0.73;;;13.50;99.90;;;;;;5071788;28;20047;-83
2022/10/07 00:13:21;;;;;;;2.85;0.50;;;13.70;99.90;;;;;;5068656;28;20032;-83
2022/10/07 00:15:47;;;;;;;2.17;0.43;;;13.60;99.90;;;;;;5074668;28;20056;-83
2022/10/07 00:18:12;;;;;;;2.10;0.68;;;13.60;99.90;;;;;;5092720;28;20426;-84
2022/10/07 00:20:38;;;;;;;1.92;0.60;;;13.60;99.90;;;;;;5096776;28;20096;-83
2022/10/07 00:23:05;;;;;;;1.42;0.50;;;13.50;99.90;;;;;;5109772;28;20039;-83
2022/10/07 00:25:35;;;;;;;4.10;0.70;;;13.50;99.90;;;;;;5096730;28;20028;-82
2022/10/07 00:28:02;;;;;;;3.15;0.43;;;13.60;99.90;;;;;;5112596;28;20012;-83
2022/10/07 00:30:27;;;;;;;2.47;0.65;;;13.60;99.90;;;;;;5092769;28;20084;-83
2022/10/07 00:32:53;;;;;;;1.30;0.55;;;13.50;99.90;;;;;;5111802;28;20020;-83
2022/10/07 00:35:18;;;;;;;2.67;0.50;;;13.50;99.90;;;;;;5097698;28;20035;-83
2022/10/07 00:37:44;;;;;;;3.53;0.50;;;13.50;99.90;;;;;;5080788;28;20230;-85
2022/10/07 00:40:11;;;;;;;2.78;0.50;;;13.60;99.90;;;;;;5073108;28;20119;-83
2022/10/07 00:42:39;;;;;;;2.28;0.70;;;13.60;99.90;;;;;;5071124;28;20048;-83
2022/10/07 00:45:11;;;;;;;3.30;0.57;;;13.60;99.90;;;;;;5074946;28;20102;-84
2022/10/07 00:47:36;;;;;;;2.13;0.60;;;13.60;99.90;;;;;;5073489;28;20024;-83
2022/10/07 00:50:18;;;;;;;2.20;0.50;;;13.50;99.90;;;;;;5091154;28;20035;-83
2022/10/07 00:52:48;;;;;;;2.85;0.50;;;13.60;99.90;;;;;;5102940;28;20055;-83
2022/10/07 00:55:19;;;;;;;3.55;0.63;;;13.60;99.90;;;;;;5068648;28;20032;-84
2022/10/07 00:57:46;;;;;;;2.33;0.80;;;13.60;99.90;;;;;;5094898;28;20044;-83
2022/10/07 01:00:12;;;;;;;3.17;0.80;;;13.60;99.90;;;;;;5099111;28;20096;-86
2022/10/07 01:02:38;;;;;;;2.97;0.80;;;13.60;99.90;;;;;;5093569;28;20133;-84
2022/10/07 01:05:08;;;;;;;2.72;0.82;;;13.60;99.90;;;;;;5093349;28;20031;-84
2022/10/07 01:07:34;;;;;;;2.65;0.70;;;13.60;99.90;;;;;;5073670;28;20024;-83
2022/10/07 01:10:01;;;;;;;2.03;0.52;;;13.50;99.90;;;;;;5091380;28;20023;-84
2022/10/07 01:12:54;;;;;;;2.05;0.85;;;13.50;99.90;;;;;;5074096;28;20503;-83
2022/10/07 01:15:38;;;;;;;1.75;0.50;;;13.50;99.90;;;;;;5070453;28;20016;-85
2022/10/07 01:18:22;;;;;;;2.50;0.70;;;13.50;99.90;;;;;;5089314;28;20016;-84
2022/10/07 01:20:59;;;;;;;2.08;0.68;;;13.50;99.90;;;;;;5073712;28;20434;-84
2022/10/07 01:23:55;;;;;;;2.80;0.73;;;13.50;99.90;;;;;;5068587;28;20029;-83
2022/10/07 01:26:51;;;;;;;2.15;0.60;;;13.50;99.90;;;;;;5091021;28;20020;-84
2022/10/07 01:29:24;;;;;;;1.25;0.50;;;13.50;99.90;;;;;;5089041;28;20107;-84
2022/10/07 01:32:08;;;;;;;2.17;0.43;;;13.50;99.90;;;;;;5088760;28;20812;-84
2022/10/07 01:34:36;;;;;;;1.63;0.70;;;13.50;99.90;;;;;;5085719;23;20052;-85
2022/10/07 01:37:05;;;;;;;2.13;0.50;;;13.50;99.90;;;;;;5079113;28;20016;-85
2022/10/07 01:39:37;;;;;;;2.70;0.50;;;13.50;99.90;;;;;;5097553;28;20530;-85
2022/10/07 01:42:03;;;;;;;2.40;0.50;;;13.50;99.90;;;;;;5080876;28;20070;-85
2022/10/07 01:44:29;;;;;;;2.42;0.65;;;13.50;99.90;;;;;;5080096;28;20500;-85
2022/10/07 01:46:55;;;;;;;3.22;0.85;;;13.50;99.90;;;;;;5087231;28;20024;-84
2022/10/07 01:49:21;;;;;;;1.67;0.52;;;13.50;99.90;;;;;;5096776;28;20031;-85
2022/10/07 01:52:05;;;;;;;2.53;0.70;;;13.50;99.90;;;;;;5077652;28;20016;-85
2022/10/07 01:54:37;;;;;;;1.45;0.60;;;14.10;99.90;;;;;;5070932;28;20058;-84
2022/10/07 01:57:24;;;;;;;;;;;13.50;99.90;;;;;;5078991;28;20476;-85
2022/10/07 02:00:05;;;;;;;2.90;0.47;;;13.50;99.90;;;;;;5077647;28;19908;-85
2022/10/07 02:03:12;;;;;;;1.45;0.52;;;13.50;99.90;;;;;;5075407;28;20031;-85
2022/10/07 02:05:56;;;;;;;1.90;0.55;;;13.50;99.90;;;;;;5062615;28;20035;-85
2022/10/07 02:08:36;;;;;;;1.33;0.38;;;13.40;99.90;;;;;;5090710;28;20115;-85
2022/10/07 02:11:14;;;;;;;2.17;0.60;;;13.40;99.90;;;;;;5093254;28;20028;-85
2022/10/07 02:14:23;;;;;;;3.10;0.68;;;13.40;99.90;;;;;;5092544;28;20456;-85
2022/10/07 02:16:55;;;;;;;2.40;0.57;;;13.50;99.90;;;;;;5091688;28;20099;-85
2022/10/07 02:19:23;;;;;;;1.50;0.40;;;13.40;99.90;;;;;;5066332;28;20024;-85
2022/10/07 02:21:52;;;;;;;1.65;0.47;;;13.70;99.90;;;;;;5095572;28;20091;-85
2022/10/07 02:24:21;;;;;;;1.50;0.50;;;13.50;99.90;;;;;;5090506;28;20575;-85
2022/10/07 02:26:48;;;;;;;2.88;1.00;;;13.80;99.90;;;;;;5094701;28;20032;-85
2022/10/07 02:29:18;;;;;;;2.63;0.60;;;14.00;99.90;;;;;;5094051;28;20435;-84
2022/10/07 02:31:46;;;;;;;2.97;0.60;;;13.70;99.90;;;;;;5085720;28;20495;-85
2022/10/07 02:34:15;;;;;;;2.08;0.60;;;13.40;99.90;;;;;;5098211;28;20028;-85
2022/10/07 02:36:49;;;;;;;0.82;0.38;;;13.30;99.90;;;;;;5081458;28;20124;-85
2022/10/07 02:39:14;;;;;;;1.25;0.40;;;13.30;99.90;;;;;;5080172;28;20400;-85
2022/10/07 02:41:52;;;;;;;3.83;0.80;;;13.30;99.90;;;;;;5083229;28;20067;-85
2022/10/07 02:44:20;;;;;;;1.17;0.50;;;13.30;99.90;;;;;;5079614;28;20028;-85
2022/10/07 02:47:04;;;;;;;1.67;0.43;;;13.30;99.90;;;;;;5098195;28;20024;-85
2022/10/07 02:49:32;;;;;;;2.47;0.60;;;13.30;99.90;;;;;;5075535;28;20078;-85
2022/10/07 02:52:07;;;;;;;0.93;0.40;;;13.30;99.90;;;;;;5078109;28;20031;-84
2022/10/07 02:54:53;;;;;;;1.27;0.40;;;13.30;99.90;;;;;;5080297;28;20043;-85
2022/10/07 02:57:21;;;;;;;2.97;0.90;;;13.30;99.90;;;;;;5081707;28;20024;-85
2022/10/07 02:59:49;;;;;;;0.65;0.30;;;13.30;99.90;;;;;;5079324;28;20036;-85
2022/10/07 03:02:24;;;;;;;3.40;0.75;;;13.30;99.90;;;;;;5080149;28;20443;-86
2022/10/07 03:04:49;;;;;;;2.05;0.60;;;13.30;99.90;;;;;;5080766;28;20028;-85
2022/10/07 03:07:15;;;;;;;3.15;0.57;;;13.30;99.90;;;;;;5090524;28;20392;-86
2022/10/07 03:09:42;;;;;;;3.10;0.50;;;13.30;99.90;;;;;;5085704;28;20035;-85
2022/10/07 03:12:07;;;;;;;1.80;0.52;;;13.80;99.90;;;;;;5094077;28;20033;-85
2022/10/07 03:14:34;;;;;;;2.28;0.43;;;13.60;99.90;;;;;;5088183;28;20032;-85
2022/10/07 03:17:01;;;;;;;1.80;0.70;;;13.30;99.90;;;;;;5081779;28;20166;-85
2022/10/07 03:19:26;;;;;;;2.25;0.75;;;13.30;99.90;;;;;;5084996;28;20488;-85
2022/10/07 03:21:53;;;;;;;1.73;0.45;;;14.20;99.90;;;;;;5079729;28;20024;-85
2022/10/07 03:24:18;;;;;;;1.58;0.50;;;13.30;99.90;;;;;;5096684;28;20485;-84
2022/10/07 03:26:44;;;;;;;1.77;0.43;;;13.30;99.90;;;;;;5097163;28;20020;-85
2022/10/07 03:29:10;;;;;;;1.52;0.50;;;13.60;99.90;;;;;;5096029;28;20032;-84
2022/10/07 03:31:36;;;;;;;1.83;0.70;;;13.30;99.90;;;;;;5105438;28;20027;-85
2022/10/07 03:34:02;;;;;;;3.22;0.80;;;13.20;99.90;;;;;;5084289;28;20039;-85
2022/10/07 03:36:28;;;;;;;2.83;0.60;;;13.20;99.90;;;;;;5105153;28;20027;-86
2022/10/07 03:38:54;;;;;;;2.67;0.57;;;13.20;99.90;;;;;;5100139;28;20076;-85
2022/10/07 03:41:20;;;;;;;2.25;0.70;;;13.20;99.90;;;;;;5079353;28;20047;-86
2022/10/07 03:43:46;;;;;;;1.75;0.52;;;13.20;99.90;;;;;;5079389;28;20020;-85
2022/10/07 03:46:12;;;;;;;1.58;0.50;;;13.70;99.90;;;;;;5082525;28;20046;-85
2022/10/07 03:48:37;;;;;;;1.85;0.50;;;13.70;99.90;;;;;;5097176;28;20480;-85
2022/10/07 03:51:03;;;;;;;0.80;0.47;;;13.20;99.90;;;;;;5099792;28;20031;-86
2022/10/07 03:53:30;;;;;;;2.10;0.70;;;13.20;99.90;;;;;;5084420;28;20028;-85
2022/10/07 03:55:56;;;;;;;2.20;0.63;;;13.50;99.90;;;;;;5092871;28;20034;-85
2022/10/07 03:58:22;;;;;;;2.30;0.70;;;13.20;99.90;;;;;;5097112;28;20020;-85
2022/10/07 04:00:48;;;;;;;1.92;0.60;;;13.20;99.90;;;;;;5097615;28;20020;-85
2022/10/07 04:03:14;;;;;;;2.05;0.60;;;13.80;99.90;;;;;;5083169;28;20060;-85
2022/10/07 04:05:40;;;;;;;1.20;0.60;;;13.90;99.90;;;;;;5075291;28;20477;-85
2022/10/07 04:08:06;;;;;;;2.92;0.73;;;14.00;99.90;;;;;;5096255;28;20099;-85
2022/10/07 04:10:32;;;;;;;2.15;0.70;;;13.20;99.90;;;;;;5078478;28;20027;-85
2022/10/07 04:12:58;;;;;;;3.00;0.75;;;13.20;99.90;;;;;;5098674;28;20521;-85
2022/10/07 04:15:24;;;;;;;1.52;0.60;;;13.20;99.90;;;;;;5077214;28;20026;-85
2022/10/07 04:17:57;;;;;;;2.22;0.60;;;13.50;99.90;;;;;;5094349;28;20028;-85
2022/10/07 04:20:23;;;;;;;2.60;0.50;;;13.70;99.90;;;;;;5078567;28;20020;-85
2022/10/07 04:22:49;;;;;;;1.00;0.40;;;13.10;99.90;;;;;;5087856;28;20094;-85
2022/10/07 04:25:32;;;;;;;2.80;0.57;;;13.20;99.90;;;;;;5076424;28;20115;-85
2022/10/07 04:28:06;;;;;;;1.23;0.50;;;13.10;99.90;;;;;;5090822;28;20020;-85
2022/10/07 04:30:36;;;;;;;2.38;0.90;;;13.00;99.90;;;;;;5077391;28;20592;-85
2022/10/07 04:33:03;;;;;;;2.42;0.88;;;13.00;99.90;;;;;;5094449;28;20023;-86
2022/10/07 04:35:29;;;;;;;1.33;0.70;;;13.30;99.90;;;;;;5076393;28;20034;-86
2022/10/07 04:37:55;;;;;;;1.63;0.70;;;13.50;99.90;;;;;;5073809;28;20486;-86
2022/10/07 04:40:22;;;;;;;2.60;0.65;;;13.00;99.90;;;;;;5092674;28;20373;-86
2022/10/07 04:45:36;;;;;;;4.30;1.15;;;13.10;99.90;;;;;;5088383;28;20036;-86
2022/10/07 04:48:04;;;;;;;2.90;0.90;;;13.00;99.90;;;;;;5074738;28;20012;-86
2022/10/07 04:50:37;;;;;;;2.70;0.68;;;13.00;99.90;;;;;;5072735;28;20061;-84
2022/10/07 04:53:13;;;;;;;3.55;0.68;;;13.00;99.90;;;;;;5074169;28;20019;-86
2022/10/07 04:55:45;;;;;;;1.90;0.70;;;13.20;99.90;;;;;;5073962;28;20030;-86
2022/10/07 04:58:11;;;;;;;3.33;0.90;;;13.00;99.90;;;;;;5090191;28;20024;-86
2022/10/07 05:00:43;;;;;;;2.17;0.60;;;13.00;99.90;;;;;;5075209;28;20053;-86
2022/10/07 05:03:08;;;;;;;2.13;0.88;;;13.00;99.90;;;;;;5091505;28;20126;-85
2022/10/07 05:05:34;;;;;;;1.73;0.68;;;13.00;99.90;;;;;;5091214;28;20106;-87
2022/10/07 05:08:00;;;;;;;4.13;0.93;;;13.00;99.90;;;;;;5092036;28;20444;-86
2022/10/07 05:10:25;;;;;;;3.60;1.00;;;13.30;99.90;;;;;;5076980;28;20024;-86
2022/10/07 05:12:51;;;;;;;2.20;0.73;;;13.00;99.90;;;;;;5072506;28;20024;-86
2022/10/07 05:15:16;;;;;;;1.63;0.80;;;13.00;99.90;;;;;;5073037;28;20080;-86
2022/10/07 05:17:42;;;;;;;2.85;0.90;;;13.50;99.90;;;;;;5075335;28;20023;-86
2022/10/07 05:20:09;;;;;;;3.45;0.80;;;13.00;99.90;;;;;;5094191;28;20054;-85
2022/10/07 05:22:35;;;;;;;1.83;0.73;;;13.00;99.90;;;;;;5061317;28;20034;-86
2022/10/07 05:25:01;;;;;;;4.97;1.00;;;13.00;99.90;;;;;;5091194;28;20492;-86
2022/10/07 05:27:26;;;;;;;2.35;0.80;;;13.60;99.90;;;;;;5075106;28;20023;-85
2022/10/07 05:29:52;;;;;;;2.08;0.73;;;13.00;99.90;;;;;;5092147;28;20031;-86
2022/10/07 05:32:17;;;;;;;2.58;0.93;;;13.10;99.90;;;;;;5071430;28;20035;-86
2022/10/07 05:34:43;;;;;;;2.25;0.98;;;13.00;99.90;;;;;;5074225;28;20498;-87
2022/10/07 05:37:10;;;;;;;2.75;0.80;;;13.10;99.90;;;;;;5074695;28;20024;-87
2022/10/07 05:39:36;;;;;;;4.97;1.00;;;13.50;99.90;;;;;;5073234;28;20023;-86
2022/10/07 05:42:02;;;;;;;2.13;0.70;;;13.20;99.90;;;;;;5090441;28;20101;-86
2022/10/07 05:44:30;;;;;;;4.78;1.00;;;13.00;99.90;;;;;;5077942;28;20424;-86
2022/10/07 05:46:56;;;;;;;2.10;0.77;;;13.10;99.90;;;;;;5091879;28;20028;-86
2022/10/07 05:49:22;;;;;;;3.92;0.80;;;13.10;99.90;;;;;;5067561;28;20020;-86
2022/10/07 05:51:48;;;;;;;2.65;1.02;;;13.10;99.90;;;;;;5086020;28;20028;-86
2022/10/07 05:54:14;;;;;;;2.63;0.88;;;13.20;99.90;;;;;;5091968;28;20059;-87
2022/10/07 05:56:39;;;;;;;2.30;0.70;;;13.20;99.90;;;;;;5093717;28;20124;-87
2022/10/07 05:59:06;;;;;;;8.77;1.50;;;13.20;99.90;;;;;;5076331;28;20016;-87
2022/10/07 06:01:32;;;;;;;2.20;0.80;;;13.30;99.90;;;;;;5090557;28;20046;-86
2022/10/07 06:03:58;;;;;;;1.88;0.95;;;13.40;99.90;;;;;;5093040;28;20125;-86
2022/10/07 06:06:24;;;;;;;2.03;0.70;;;13.80;99.90;;;;;;5074886;28;20428;-87
2022/10/07 06:08:51;;;;;;;3.50;0.90;;;13.40;99.90;;;;;;5074090;28;20106;-87
2022/10/07 06:14:02;;;;;;;3.03;1.00;;;13.50;99.90;;;;;;5093899;28;20035;-86
2022/10/07 06:16:28;;;;;;;2.58;0.90;;;13.50;99.90;;;;;;5097581;28;20035;-87
2022/10/07 06:18:54;;;;;;;3.47;0.73;;;13.50;99.90;;;;;;5080767;28;20032;-87
2022/10/07 06:21:24;;;;;;;2.17;0.77;;;13.50;99.90;;;;;;5095628;28;20099;-86
2022/10/07 06:23:53;;;;;;;1.85;0.70;;;13.80;99.90;;;;;;5087857;28;20024;-84
2022/10/07 06:26:20;;;;;;;3.85;0.88;;;13.70;99.90;;;;;;5097191;28;20056;-85
2022/10/07 06:28:46;;;;;;;4.82;1.00;;;13.70;99.90;;;;;;5073321;28;20480;-85
2022/10/07 06:31:14;;;;;;;2.95;0.80;;;13.80;99.90;;;;;;5076609;28;20020;-85
2022/10/07 06:33:40;;;;;;;3.10;1.02;;;13.80;99.90;;;;;;5077739;28;20387;-84
2022/10/07 06:36:09;;;;;;;3.13;0.70;;;13.80;99.90;;;;;;5094674;28;20388;-85
2022/10/07 06:38:35;;;;;;;3.55;0.85;;;14.10;99.90;;;;;;5073114;28;20078;-85
2022/10/07 06:41:02;;;;;;;2.05;0.80;;;13.80;99.90;;;;;;5094404;28;20488;-85
2022/10/07 06:43:29;;;;;;;2.55;1.05;;;14.00;99.90;;;;;;5085599;28;20024;-85
2022/10/07 06:46:00;;;;;;;3.38;1.08;;;14.00;99.90;;;;;;5104265;28;20024;-85
2022/10/07 06:48:27;;;;;;;3.22;1.30;;;13.90;99.90;;;;;;5093797;28;20434;-85
2022/10/07 06:50:54;;;;;;;2.55;1.25;;;14.00;99.90;;;;;;5096974;28;20103;-85
2022/10/07 06:53:21;;;;;;;2.35;0.85;;;14.70;99.90;;;;;;5075247;28;20027;-85
2022/10/07 06:55:50;;;;;;;2.78;1.05;;;14.10;99.90;;;;;;5066695;28;20020;-86
2022/10/07 06:58:23;;;;;;;3.20;0.90;;;14.00;99.90;;;;;;5068395;28;20035;-88
2022/10/07 07:00:53;;;;;;;2.60;1.00;;;14.10;99.90;;;;;;5082253;28;20020;-88
2022/10/07 07:03:19;;;;;;;2.88;0.90;;;14.40;99.90;;;;;;5087461;28;20024;-86
2022/10/07 07:05:46;;;;;;;1.88;0.93;;;14.20;99.90;;;;;;5083393;28;20024;-88
2022/10/07 07:08:15;;;;;;;3.00;1.10;;;14.40;99.90;;;;;;5094898;28;20080;-88
2022/10/07 07:10:42;;;;;;;3.97;1.17;;;14.40;99.90;;;;;;5103279;28;20024;-88
2022/10/07 07:13:16;;;;;;;3.92;1.17;;;14.40;99.90;;;;;;5094932;28;20070;-88
2022/10/07 07:15:42;;;;;;;2.67;1.10;;;14.40;99.90;;;;;;5099866;28;20024;-88
2022/10/07 07:18:10;;;;;;;3.15;1.65;;;14.80;99.90;;;;;;5082359;28;20130;-88
2022/10/07 07:20:37;;;;;;;4.53;1.40;;;14.80;99.90;;;;;;5101982;28;20038;-88
2022/10/07 07:23:05;;;;;;;3.90;1.45;;;14.50;99.90;;;;;;5082532;28;20035;-87
2022/10/07 07:25:34;;;;;;;2.63;1.10;;;14.60;99.90;;;;;;5094699;28;20535;-88
2022/10/07 07:28:00;;;;;;;4.20;1.50;;;14.60;99.90;;;;;;5083841;28;20040;-88
2022/10/07 07:30:30;;;;;;;4.80;1.58;;;14.60;99.90;;;;;;5080488;28;20024;-88
2022/10/07 07:32:56;;;;;;;4.57;1.17;;;14.60;99.90;;;;;;5100774;28;20028;-88
2022/10/07 07:35:30;;;;;;;4.13;1.20;;;14.70;99.90;;;;;;5107779;28;20046;-87
2022/10/07 07:38:06;;;;;;;4.55;1.15;;;14.80;99.90;;;;;;5089526;28;20035;-88
2022/10/07 07:40:36;;;;;;;4.80;1.13;;;15.20;99.90;;;;;;5070201;28;20059;-88
2022/10/07 07:43:21;;;;;;;3.92;1.30;;;15.30;99.90;;;;;;5080139;28;20115;-88
2022/10/07 07:45:47;;;;;;;4.30;1.63;;;15.00;99.90;;;;;;5081024;28;20032;-88
2022/10/07 07:48:15;;;;;;;2.78;1.15;;;15.40;99.90;;;;;;5093980;28;20039;-88
2022/10/07 07:50:44;;;;;;;3.83;0.80;;;15.20;99.90;;;;;;5102418;28;20279;-88
2022/10/07 07:53:09;;;;;;;2.55;0.90;;;15.30;99.90;;;;;;5068061;22;20151;-85
2022/10/07 07:55:35;;;;;;;2.53;1.00;;;15.30;99.90;;;;;;5050992;28;20093;-85
2022/10/07 07:58:00;;;;;;;2.10;0.80;;;15.40;99.90;;;;;;5048444;28;20025;-85
2022/10/07 08:00:26;;;;;;;2.53;0.77;;;15.40;99.90;;;;;;5049225;28;20032;-85
2022/10/07 08:02:52;;;;;;;1.95;0.85;;;15.60;99.90;;;;;;5038120;28;20443;-84
2022/10/07 08:05:19;;;;;;;3.45;1.05;;;15.70;99.90;;;;;;5029402;28;20573;-85
2022/10/07 08:07:44;;;;;;;2.38;0.95;;;15.80;99.90;;;;;;5031368;28;20025;-85
2022/10/07 08:10:10;;;;;;;1.88;0.80;;;15.90;99.90;;;;;;5032338;28;20410;-85
2022/10/07 08:12:35;;;;;;;3.50;1.30;;;15.80;99.90;;;;;;5030387;28;20514;-85
2022/10/07 08:15:01;;;;;;;4.00;1.10;;;15.90;99.90;;;;;;5022513;28;20074;-85
2022/10/07 08:17:26;;;;;;;5.70;0.90;;;16.30;99.90;;;;;;5030788;28;20350;-85
2022/10/07 08:19:54;;;;;;;3.00;0.80;;;16.40;99.90;;;;;;5030339;28;20025;-85
2022/10/07 08:22:19;;;;;;;1.60;0.73;;;16.20;99.90;;;;;;5029487;28;20436;-85
2022/10/07 08:24:45;;;;;;;4.65;0.85;;;16.20;99.90;;;;;;5030991;28;20029;-85
2022/10/07 08:27:11;;;;;;;3.17;0.80;;;16.20;99.90;;;;;;5032945;28;20371;-85
2022/10/07 08:29:37;;;;;;;2.85;1.20;;;16.10;99.90;;;;;;5030763;28;20024;-85
2022/10/07 08:32:03;;;;;;;2.20;0.98;;;16.20;99.90;;;;;;5030148;28;20025;-85
2022/10/07 08:34:28;;;;;;;5.07;1.00;;;16.20;99.90;;;;;;5031512;28;20018;-85
2022/10/07 08:36:55;;;;;;;1.75;0.70;;;16.20;99.90;;;;;;5030816;28;20573;-86
2022/10/07 08:39:23;;;;;;;3.15;1.00;;;16.20;99.90;;;;;;5020183;28;20101;-84
2022/10/07 08:42:19;;;;;;;7.32;1.00;;;16.40;99.90;;;;;;5030937;28;20022;-84
2022/10/07 08:44:48;;;;;;;2.60;1.20;;;16.50;99.90;;;;;;5031239;28;20075;-84
2022/10/07 08:47:34;;;;;;;4.05;1.10;;;16.40;99.90;;;;;;5028577;28;20026;-84
2022/10/07 08:50:21;;;;;;;2.28;0.93;;;16.60;99.90;;;;;;5031100;28;20020;-84
2022/10/07 08:52:58;;;;;;;2.35;0.88;;;16.60;99.90;;;;;;5025392;28;20548;-84
2022/10/07 08:55:44;;;;;;;4.95;1.17;;;16.60;99.90;;;;;;5028214;28;20033;-84
2022/10/07 08:58:48;;;;;;;3.28;1.00;;;16.60;99.90;;;;;;5030780;28;20170;-84
2022/10/07 09:01:31;;;;;;;2.97;0.95;;;16.60;99.90;;;;;;5021995;28;20120;-84
2022/10/07 09:04:09;;;;;;;3.78;1.02;;;16.80;99.90;;;;;;5024509;28;20173;-84
2022/10/07 09:06:44;;;;;;;2.67;0.90;;;17.00;99.90;;;;;;5024920;28;20038;-84
2022/10/07 09:09:18;;;;;;;5.57;0.80;;;17.10;99.90;;;;;;5029299;28;20098;-84
2022/10/07 09:11:46;;;;;;;1.92;0.80;;;17.50;99.90;;;;;;5029431;28;20032;-84
2022/10/07 09:14:36;;;;;;;3.88;1.35;;;17.30;99.90;;;;;;5028634;28;20033;-84
2022/10/07 09:17:13;;;;;;;4.45;1.13;;;17.40;99.90;;;;;;5028662;28;20082;-86
2022/10/07 09:19:45;;;;;;;2.45;1.08;;;17.50;99.90;;;;;;5030028;28;20056;-86
2022/10/07 09:22:20;;;;;;;2.75;0.85;;;17.60;99.90;;;;;;5028352;28;20029;-85
2022/10/07 09:24:48;;;;;;;3.00;1.10;;;17.80;99.90;;;;;;5025128;28;20124;-85
2022/10/07 09:27:16;;;;;;;2.45;1.02;;;17.80;99.90;;;;;;5029212;28;20025;-85
2022/10/07 09:29:43;;;;;;;4.88;1.58;;;17.70;99.90;;;;;;5028388;28;20398;-83
2022/10/07 09:32:16;;;;;;;4.25;1.00;;;17.80;99.90;;;;;;5030575;28;20029;-85
2022/10/07 09:34:41;;;;;;;2.67;1.20;;;17.80;99.90;;;;;;5028971;28;20033;-85
2022/10/07 09:37:12;;;;;;;3.58;1.27;;;17.70;99.90;;;;;;5029205;28;20115;-86
2022/10/07 09:39:38;;;;;;;3.05;1.30;;;17.80;99.90;;;;;;5022108;28;20037;-85
2022/10/07 09:42:07;;;;;;;3.20;1.30;;;17.80;99.90;;;;;;5030268;28;20033;-86
2022/10/07 09:44:33;;;;;;;3.45;1.10;;;17.70;99.90;;;;;;5023443;28;20579;-85
2022/10/07 09:47:15;;;;;;;2.97;1.48;;;17.80;99.90;;;;;;5029880;28;20026;-86
2022/10/07 09:49:43;;;;;;;4.78;1.50;;;17.70;99.90;;;;;;5026755;28;20116;-86
2022/10/07 09:52:22;;;;;;;3.10;1.10;;;17.80;99.90;;;;;;5029666;28;20026;-86
2022/10/07 09:54:50;;;;;;;3.70;1.05;;;17.90;99.90;;;;;;5028861;28;20040;-86
2022/10/07 09:57:35;;;;;;;3.63;1.20;;;18.00;99.90;;;;;;5029748;28;20440;-85
2022/10/07 10:00:21;;;;;;;4.70;2.13;;;17.70;99.90;;;;;;5025028;28;20392;-85
2022/10/07 10:02:54;;;;;;;2.78;1.23;;;18.20;99.90;;;;;;5021979;28;20626;-85
2022/10/07 10:05:37;;;;;;;2.97;1.10;;;18.30;99.90;;;;;;5029097;28;20066;-84
2022/10/07 10:08:26;;;;;;;4.75;1.45;;;18.40;99.90;;;;;;5024877;28;20529;-85
2022/10/07 10:11:02;;;;;;;4.68;1.30;;;18.50;99.90;;;;;;5024161;28;20037;-85
2022/10/07 10:13:32;;;;;;;2.97;1.27;;;18.40;99.90;;;;;;5026069;28;20018;-85
2022/10/07 10:15:59;;;;;;;2.72;1.20;;;18.10;99.90;;;;;;5025924;28;20524;-84
2022/10/07 10:18:32;;;;;;;3.08;1.38;;;18.20;99.90;;;;;;5025733;28;20125;-85
2022/10/07 10:21:35;;;;;;;4.15;1.50;;;18.30;99.90;;;;;;5032332;28;20424;-85
2022/10/07 10:24:05;;;;;;;5.05;1.60;;;18.40;99.90;;;;;;5023003;28;20061;-84
2022/10/07 10:26:47;;;;;;;3.10;1.42;;;18.40;99.90;;;;;;5020526;28;20049;-85
2022/10/07 10:29:41;;;;;;;2.83;1.10;;;18.50;99.90;;;;;;5026686;28;20100;-85
2022/10/07 10:32:21;;;;;;;2.85;1.27;;;18.50;99.90;;;;;;5042880;28;20018;-85
2022/10/07 10:35:00;;;;;;;3.72;1.70;;;18.70;99.90;;;;;;5028172;28;20025;-85
2022/10/07 10:37:38;;;;;;;2.65;1.00;;;18.60;99.90;;;;;;5028403;28;20028;-85
2022/10/07 10:40:22;;;;;;;6.15;1.40;;;18.70;99.90;;;;;;5025922;28;20152;-85
2022/10/07 10:43:05;;;;;;;3.85;1.88;;;18.70;99.90;;;;;;5028777;28;20036;-84
2022/10/07 10:45:39;;;;;;;2.30;1.23;;;18.80;99.90;;;;;;5043155;28;20030;-84
2022/10/07 10:48:39;;;;;;;5.05;1.63;;;18.70;99.90;;;;;;5028307;28;20049;-85
2022/10/07 10:51:16;;;;;;;3.90;1.50;;;18.80;99.90;;;;;;5027678;28;20026;-85
2022/10/07 10:54:19;;;;;;;4.85;2.60;;;18.90;99.90;;;;;;5028672;28;20029;-85
2022/10/07 10:57:49;;;;;;;3.92;1.70;;;18.90;99.90;;;;;;5043720;28;20037;-85
2022/10/07 11:00:18;;;;;;;3.38;1.38;;;19.00;99.90;;;;;;4986250;28;20030;-84
2022/10/07 11:03:23;;;;;;;5.25;2.13;;;19.00;99.90;;;;;;4991006;28;20033;-85
2022/10/07 11:05:56;;;;;;;3.90;2.08;;;18.80;99.90;;;;;;5025599;28;20044;-85
2022/10/07 11:08:32;;;;;;;3.97;1.92;;;18.70;99.90;;;;;;5029142;28;20021;-84
2022/10/07 11:11:13;;;;;;;4.03;1.65;;;18.70;99.90;;;;;;5027051;28;20482;-85
2022/10/07 11:13:50;;;;;;;3.80;1.73;;;18.90;99.90;;;;;;5026196;28;20079;-84
2022/10/07 11:16:24;;;;;;;3.83;1.60;;;18.90;99.90;;;;;;5030498;28;20112;-85
2022/10/07 11:19:19;;;;;;;4.30;2.03;;;19.00;99.90;;;;;;5026224;28;20022;-84
2022/10/07 11:21:50;;;;;;;3.00;1.60;;;19.20;99.90;;;;;;4991177;28;20038;-85
2022/10/07 11:24:39;;;;;;;5.10;1.77;;;19.10;99.90;;;;;;5025157;28;20088;-85
2022/10/07 11:27:19;;;;;;;5.00;1.67;;;19.00;99.90;;;;;;5027621;28;20026;-85
2022/10/07 11:30:20;;;;;;;5.45;2.22;;;19.20;99.90;;;;;;5028466;28;20030;-84
2022/10/07 11:33:07;;;;;;;5.95;2.22;;;19.10;99.90;;;;;;5029912;28;20032;-84
2022/10/07 11:35:47;;;;;;;4.45;1.70;;;19.10;99.90;;;;;;5029122;28;20129;-85
2022/10/07 11:38:21;;;;;;;3.37;1.70;;;19.20;99.90;;;;;;5018916;28;20160;-85
2022/10/07 11:40:52;;;;;;;4.45;1.90;;;19.10;99.90;;;;;;5031549;28;20485;-85
2022/10/07 11:43:44;;;;;;;5.72;2.10;;;19.20;99.90;;;;;;5032356;28;20035;-84
2022/10/07 11:46:24;;;;;;;4.10;1.85;;;19.30;99.90;;;;;;5026396;28;20504;-84
2022/10/07 11:49:13;;;;;;;4.43;2.00;;;19.40;99.90;;;;;;5031051;28;20026;-85
2022/10/07 11:51:49;;;;;;;4.25;2.40;;;19.20;99.90;;;;;;5032188;28;20314;-84
2022/10/07 11:54:16;;;;;;;6.10;2.08;;;19.00;99.90;;;;;;5031675;28;20048;-84
2022/10/07 11:56:50;;;;;;;4.47;1.58;;;19.10;99.90;;;;;;5031174;28;20037;-85
2022/10/07 11:59:34;;;;;;;3.05;1.20;;;19.20;99.90;;;;;;5031406;28;20098;-85
2022/10/07 12:02:01;;;;;;;4.15;1.90;;;19.30;99.90;;;;;;5030219;28;20032;-84
2022/10/07 12:04:29;;;;;;;3.67;1.70;;;19.30;99.90;;;;;;5031697;28;20362;-84
2022/10/07 12:07:32;;;;;;;5.78;2.00;;;19.20;99.90;;;;;;5032103;28;20017;-85
2022/10/07 12:10:01;;;;;;;4.88;2.10;;;19.30;99.90;;;;;;5030442;28;20420;-85
2022/10/07 12:12:45;;;;;;;4.38;2.10;;;19.30;99.90;;;;;;5032666;28;20029;-84
2022/10/07 12:15:40;;;;;;;4.72;2.05;;;19.30;99.90;;;;;;5030741;28;20021;-84
2022/10/07 12:18:06;;;;;;;5.43;2.53;;;19.20;99.90;;;;;;5042264;28;20148;-85
2022/10/07 12:20:38;;;;;;;4.75;1.92;;;19.40;99.90;;;;;;5031610;28;20025;-85
2022/10/07 12:23:19;;;;;;;4.43;1.83;;;19.20;99.90;;;;;;5023356;28;20025;-84
2022/10/07 12:25:58;;;;;;;4.93;2.45;;;19.20;99.90;;;;;;5030429;28;20041;-85
2022/10/07 12:28:44;;;;;;;4.55;1.75;;;19.20;99.90;;;;;;5029201;28;20108;-85
2022/10/07 12:31:20;;;;;;;2.95;1.55;;;19.10;99.90;;;;;;5030111;28;20027;-85
2022/10/07 12:33:45;;;;;;;3.97;1.48;;;19.20;99.90;;;;;;5030318;28;20406;-85
2022/10/07 12:36:17;;;;;;;3.55;1.50;;;19.20;99.90;;;;;;5030471;28;20017;-85
2022/10/07 12:38:44;;;;;;;;;;;19.20;99.90;;;;;;5031505;28;20025;-86
2022/10/07 12:41:23;;;;;;;4.10;1.63;;;19.40;99.90;;;;;;5030857;28;20474;-83
2022/10/07 12:44:07;;;;;;;3.75;1.80;;;19.40;99.90;;;;;;5028020;28;20064;-82
2022/10/07 12:46:48;;;;;;;5.85;2.33;;;19.40;99.90;;;;;;5019044;28;20033;-83
2022/10/07 12:49:28;;;;;;;3.40;1.60;;;19.40;99.90;;;;;;5029055;28;20032;-82
2022/10/07 12:51:57;;;;;;;3.30;1.67;;;19.30;99.90;;;;;;5028429;28;20025;-83
2022/10/07 12:54:30;;;;;;;3.53;1.50;;;19.50;99.90;;;;;;5030563;28;20124;-84
2022/10/07 12:56:57;;;;;;;3.72;1.58;;;19.60;99.90;;;;;;5031142;28;20041;-85
2022/10/07 12:59:55;;;;;;;2.85;1.23;;;19.60;99.90;;;;;;5029624;28;20030;-85
2022/10/07 13:02:24;;;;;;;2.90;1.40;;;19.80;99.90;;;;;;5041736;28;20025;-85
2022/10/07 13:04:50;;;;;;;4.32;1.33;;;19.90;99.90;;;;;;5029446;28;20030;-85
2022/10/07 13:07:34;;;;;;;3.28;1.50;;;20.00;99.90;;;;;;5030985;28;20075;-84
2022/10/07 13:10:31;;;;;;;3.28;1.65;;;20.00;99.90;;;;;;5029188;28;20072;-85
2022/10/07 13:13:14;;;;;;;4.55;1.60;;;20.10;99.90;;;;;;5021563;28;20025;-86
2022/10/07 13:15:58;;;;;;;4.60;1.65;;;20.10;99.90;;;;;;5027935;28;20067;-86
2022/10/07 13:18:47;;;;;;;2.80;1.23;;;20.20;99.90;;;;;;5028746;28;20040;-86
2022/10/07 13:21:35;;;;;;;4.10;1.20;;;20.40;99.90;;;;;;5027538;28;20390;-86